sensor_id;sensor_type;location;lat;lon;timestamp;temperature;humidity
5846;DHT22;2949;50.778;7.094;2022-11-04T00:00:15;10.40;99.90
5846;DHT22;2949;50.778;7.094;2022-11-04T00:02:41;10.40;99.90
5846;DHT22;2949;50.778;7.094;2022-11-04T00:05:06;10.30;99.90
5846;DHT22;2949;50.778;7.094;2022-11-04T00:07:32;10.20;99.90
5846;DHT22;2949;50.778;7.094;2022-11-04T00:10:16;10.10;99.90
5846;DHT22;2949;50.778;7.094;2022-11-04T00:13:02;10.00;99.90
5846;DHT22;2949;50.778;7.094;2022-11-04T00:15:28;10.00;99.90
5846;DHT22;2949;50.778;7.094;2022-11-04T00:18:12;9.90;99.90
5846;DHT22;2949;50.778;7.094;2022-11-04T00:20:37;9.90;99.90
5846;DHT22;2949;50.778;7.094;2022-11-04T00:23:21;9.90;99.90
5846;DHT22;2949;50.778;7.094;2022-11-04T00:26:07;9.90;99.90
5846;DHT22;2949;50.778;7.094;2022-11-04T00:28:51;9.90;99.90
5846;DHT22;2949;50.778;7.094;2022-11-04T00:31:18;9.90;99.90
5846;DHT22;2949;50.778;7.094;2022-11-04T00:34:02;9.90;99.90
5846;DHT22;2949;50.778;7.094;2022-11-04T00:36:27;9.80;99.90
5846;DHT22;2949;50.778;7.094;2022-11-04T00:38:53;9.70;99.90
5846;DHT22;2949;50.778;7.094;2022-11-04T00:41:19;9.60;99.90
5846;DHT22;2949;50.778;7.094;2022-11-04T00:43:55;9.50;99.90
5846;DHT22;2949;50.778;7.094;2022-11-04T00:46:21;9.40;99.90
5846;DHT22;2949;50.778;7.094;2022-11-04T00:48:47;9.30;99.90
5846;DHT22;2949;50.778;7.094;2022-11-04T00:51:13;9.20;99.90
5846;DHT22;2949;50.778;7.094;2022-11-04T00:53:38;9.20;99.90
5846;DHT22;2949;50.778;7.094;2022-11-04T00:56:04;9.10;99.90
5846;DHT22;2949;50.778;7.094;2022-11-04T00:58:30;9.20;99.90
5846;DHT22;2949;50.778;7.094;2022-11-04T01:00:55;9.20;99.90
5846;DHT22;2949;50.778;7.094;2022-11-04T01:03:21;9.30;99.90
5846;DHT22;2949;50.778;7.094;2022-11-04T01:05:47;9.30;99.90
5846;DHT22;2949;50.778;7.094;2022-11-04T01:08:13;9.30;99.90
5846;DHT22;2949;50.778;7.094;2022-11-04T01:10:39;9.20;99.90
5846;DHT22;2949;50.778;7.094;2022-11-04T01:13:12;9.30;99.90
5846;DHT22;2949;50.778;7.094;2022-11-04T01:15:38;9.30;99.90
5846;DHT22;2949;50.778;7.094;2022-11-04T01:18:04;9.30;99.90
5846;DHT22;2949;50.778;7.094;2022-11-04T01:20:32;9.20;99.90
5846;DHT22;2949;50.778;7.094;2022-11-04T01:22:57;9.10;99.90
5846;DHT22;2949;50.778;7.094;2022-11-04T01:25:23;9.00;99.90
5846;DHT22;2949;50.778;7.094;2022-11-04T01:27:48;9.00;99.90
5846;DHT22;2949;50.778;7.094;2022-11-04T01:30:14;8.90;99.90
5846;DHT22;2949;50.778;7.094;2022-11-04T01:32:40;8.90;99.90
5846;DHT22;2949;50.778;7.094;2022-11-04T01:35:06;8.90;99.90
5846;DHT22;2949;50.778;7.094;2022-11-04T01:37:32;8.90;99.90
5846;DHT22;2949;50.778;7.094;2022-11-04T01:39:57;8.80;99.90
5846;DHT22;2949;50.778;7.094;2022-11-04T01:42:23;8.80;99.90
5846;DHT22;2949;50.778;7.094;2022-11-04T01:44:51;8.80;99.90
5846;DHT22;2949;50.778;7.094;2022-11-04T01:49:57;8.80;99.90
5846;DHT22;2949;50.778;7.094;2022-11-04T01:53:12;8.80;99.90
5846;DHT22;2949;50.778;7.094;2022-11-04T01:55:23;8.70;99.90
5846;DHT22;2949;50.778;7.094;2022-11-04T01:57:51;8.70;99.90
5846;DHT22;2949;50.778;7.094;2022-11-04T02:00:20;8.50;99.90
5846;DHT22;2949;50.778;7.094;2022-11-04T02:05:15;8.50;99.90
5846;DHT22;2949;50.778;7.094;2022-11-04T02:07:41;8.60;99.90
5846;DHT22;2949;50.778;7.094;2022-11-04T02:10:07;8.60;99.90
5846;DHT22;2949;50.778;7.094;2022-11-04T02:12:33;8.60;99.90
5846;DHT22;2949;50.778;7.094;2022-11-04T02:15:15;8.50;99.90
5846;DHT22;2949;50.778;7.094;2022-11-04T02:23:41;8.40;99.90
5846;DHT22;2949;50.778;7.094;2022-11-04T02:26:33;8.40;99.90
5846;DHT22;2949;50.778;7.094;2022-11-04T02:29:43;8.40;99.90
5846;DHT22;2949;50.778;7.094;2022-11-04T02:35:16;8.30;99.90
5846;DHT22;2949;50.778;7.094;2022-11-04T02:40:42;8.30;99.90
5846;DHT22;2949;50.778;7.094;2022-11-04T02:43:21;8.30;99.90
5846;DHT22;2949;50.778;7.094;2022-11-04T02:45:51;8.30;99.90
5846;DHT22;2949;50.778;7.094;2022-11-04T02:48:39;8.20;99.90
5846;DHT22;2949;50.778;7.094;2022-11-04T02:51:49;8.20;99.90
5846;DHT22;2949;50.778;7.094;2022-11-04T02:54:25;8.30;99.90
5846;DHT22;2949;50.778;7.094;2022-11-04T02:56:54;8.30;99.90
5846;DHT22;2949;50.778;7.094;2022-11-04T02:59:35;8.20;99.90
5846;DHT22;2949;50.778;7.094;2022-11-04T03:02:05;8.20;99.90
5846;DHT22;2949;50.778;7.094;2022-11-04T03:04:38;8.20;99.90
5846;DHT22;2949;50.778;7.094;2022-11-04T03:07:08;8.20;99.90
5846;DHT22;2949;50.778;7.094;2022-11-04T03:09:37;8.10;99.90
5846;DHT22;2949;50.778;7.094;2022-11-04T03:12:08;8.10;99.90
5846;DHT22;2949;50.778;7.094;2022-11-04T03:14:41;8.10;99.90
5846;DHT22;2949;50.778;7.094;2022-11-04T03:17:26;8.20;99.90
5846;DHT22;2949;50.778;7.094;2022-11-04T03:20:02;8.20;99.90
5846;DHT22;2949;50.778;7.094;2022-11-04T03:22:33;8.10;99.90
5846;DHT22;2949;50.778;7.094;2022-11-04T03:25:01;8.10;99.90
5846;DHT22;2949;50.778;7.094;2022-11-04T03:27:48;8.10;99.90
5846;DHT22;2949;50.778;7.094;2022-11-04T03:30:18;8.00;99.90
5846;DHT22;2949;50.778;7.094;2022-11-04T03:32:58;8.00;99.90
5846;DHT22;2949;50.778;7.094;2022-11-04T03:35:24;7.90;99.90
5846;DHT22;2949;50.778;7.094;2022-11-04T03:37:51;7.80;99.90
5846;DHT22;2949;50.778;7.094;2022-11-04T03:40:18;7.80;99.90
5846;DHT22;2949;50.778;7.094;2022-11-04T03:43:32;7.70;99.90
5846;DHT22;2949;50.778;7.094;2022-11-04T03:45:33;7.70;99.90
5846;DHT22;2949;50.778;7.094;2022-11-04T03:47:59;7.70;99.90
5846;DHT22;2949;50.778;7.094;2022-11-04T03:50:29;7.70;99.90
5846;DHT22;2949;50.778;7.094;2022-11-04T03:52:56;7.70;99.90
5846;DHT22;2949;50.778;7.094;2022-11-04T03:55:37;7.70;99.90
5846;DHT22;2949;50.778;7.094;2022-11-04T03:58:23;7.70;99.90
5846;DHT22;2949;50.778;7.094;2022-11-04T04:01:02;7.70;99.90
5846;DHT22;2949;50.778;7.094;2022-11-04T04:03:33;7.70;99.90
5846;DHT22;2949;50.778;7.094;2022-11-04T04:06:17;7.60;99.90
5846;DHT22;2949;50.778;7.094;2022-11-04T04:08:58;7.50;99.90
5846;DHT22;2949;50.778;7.094;2022-11-04T04:11:29;7.50;99.90
5846;DHT22;2949;50.778;7.094;2022-11-04T04:16:31;7.30;99.90
5846;DHT22;2949;50.778;7.094;2022-11-04T04:19:13;7.20;99.90
5846;DHT22;2949;50.778;7.094;2022-11-04T04:21:54;7.10;99.90
5846;DHT22;2949;50.778;7.094;2022-11-04T04:24:25;7.00;99.90
5846;DHT22;2949;50.778;7.094;2022-11-04T04:27:11;6.90;99.90
5846;DHT22;2949;50.778;7.094;2022-11-04T04:30:05;6.80;99.90
5846;DHT22;2949;50.778;7.094;2022-11-04T04:32:46;6.70;99.90
5846;DHT22;2949;50.778;7.094;2022-11-04T04:35:13;6.70;99.90
5846;DHT22;2949;50.778;7.094;2022-11-04T04:38:01;6.60;99.90
5846;DHT22;2949;50.778;7.094;2022-11-04T04:40:52;6.60;99.90
5846;DHT22;2949;50.778;7.094;2022-11-04T04:43:41;6.60;99.90
5846;DHT22;2949;50.778;7.094;2022-11-04T04:46:26;6.60;99.90
5846;DHT22;2949;50.778;7.094;2022-11-04T04:48:52;6.70;99.90
5846;DHT22;2949;50.778;7.094;2022-11-04T04:51:18;6.70;99.90
5846;DHT22;2949;50.778;7.094;2022-11-04T04:53:43;6.80;99.90
5846;DHT22;2949;50.778;7.094;2022-11-04T04:56:09;6.90;99.90
5846;DHT22;2949;50.778;7.094;2022-11-04T04:58:34;7.00;99.90
5846;DHT22;2949;50.778;7.094;2022-11-04T05:01:00;7.10;99.90
5846;DHT22;2949;50.778;7.094;2022-11-04T05:03:25;7.20;99.90
5846;DHT22;2949;50.778;7.094;2022-11-04T05:05:51;7.20;99.90
5846;DHT22;2949;50.778;7.094;2022-11-04T05:08:16;7.30;99.90
5846;DHT22;2949;50.778;7.094;2022-11-04T05:10:42;7.40;99.90
5846;DHT22;2949;50.778;7.094;2022-11-04T05:13:08;7.40;99.90
5846;DHT22;2949;50.778;7.094;2022-11-04T05:15:55;7.40;99.90
5846;DHT22;2949;50.778;7.094;2022-11-04T05:18:20;7.20;99.90
5846;DHT22;2949;50.778;7.094;2022-11-04T05:20:46;7.10;99.90
5846;DHT22;2949;50.778;7.094;2022-11-04T05:23:11;7.00;99.90
5846;DHT22;2949;50.778;7.094;2022-11-04T05:25:39;7.00;99.90
5846;DHT22;2949;50.778;7.094;2022-11-04T05:28:04;7.10;99.90
5846;DHT22;2949;50.778;7.094;2022-11-04T05:30:30;7.20;99.90
5846;DHT22;2949;50.778;7.094;2022-11-04T05:32:56;7.20;99.90
5846;DHT22;2949;50.778;7.094;2022-11-04T05:35:21;7.30;99.90
5846;DHT22;2949;50.778;7.094;2022-11-04T05:37:47;7.30;99.90
5846;DHT22;2949;50.778;7.094;2022-11-04T05:40:13;7.40;99.90
5846;DHT22;2949;50.778;7.094;2022-11-04T05:42:38;7.40;99.90
5846;DHT22;2949;50.778;7.094;2022-11-04T05:45:04;7.40;99.90
5846;DHT22;2949;50.778;7.094;2022-11-04T05:47:30;7.40;99.90
5846;DHT22;2949;50.778;7.094;2022-11-04T05:49:55;7.40;99.90
5846;DHT22;2949;50.778;7.094;2022-11-04T05:52:21;7.40;99.90
5846;DHT22;2949;50.778;7.094;2022-11-04T05:54:46;7.30;99.90
5846;DHT22;2949;50.778;7.094;2022-11-04T05:57:12;7.30;99.90
5846;DHT22;2949;50.778;7.094;2022-11-04T05:59:38;7.40;99.90
5846;DHT22;2949;50.778;7.094;2022-11-04T06:02:03;7.30;99.90
5846;DHT22;2949;50.778;7.094;2022-11-04T06:04:29;7.30;99.90
5846;DHT22;2949;50.778;7.094;2022-11-04T06:06:55;7.20;99.90
5846;DHT22;2949;50.778;7.094;2022-11-04T06:09:20;7.10;99.90
5846;DHT22;2949;50.778;7.094;2022-11-04T06:12:12;7.00;99.90
5846;DHT22;2949;50.778;7.094;2022-11-04T06:14:42;7.00;99.90
5846;DHT22;2949;50.778;7.094;2022-11-04T06:17:14;7.10;99.90
5846;DHT22;2949;50.778;7.094;2022-11-04T06:19:41;7.10;99.90
5846;DHT22;2949;50.778;7.094;2022-11-04T06:22:09;7.10;99.90
5846;DHT22;2949;50.778;7.094;2022-11-04T06:24:35;7.00;99.90
5846;DHT22;2949;50.778;7.094;2022-11-04T06:27:00;6.90;99.90
5846;DHT22;2949;50.778;7.094;2022-11-04T06:29:26;6.90;99.90
5846;DHT22;2949;50.778;7.094;2022-11-04T06:31:52;6.90;99.90
5846;DHT22;2949;50.778;7.094;2022-11-04T06:34:17;6.90;99.90
5846;DHT22;2949;50.778;7.094;2022-11-04T06:36:43;6.90;99.90
5846;DHT22;2949;50.778;7.094;2022-11-04T06:39:08;6.90;99.90
5846;DHT22;2949;50.778;7.094;2022-11-04T06:41:34;6.80;99.90
5846;DHT22;2949;50.778;7.094;2022-11-04T06:43:59;6.90;99.90
5846;DHT22;2949;50.778;7.094;2022-11-04T06:46:39;6.90;99.90
5846;DHT22;2949;50.778;7.094;2022-11-04T06:49:08;7.00;99.90
5846;DHT22;2949;50.778;7.094;2022-11-04T06:51:34;7.00;99.90
5846;DHT22;2949;50.778;7.094;2022-11-04T06:53:59;7.10;99.90
5846;DHT22;2949;50.778;7.094;2022-11-04T06:56:25;7.20;99.90
5846;DHT22;2949;50.778;7.094;2022-11-04T06:58:52;7.20;99.90
5846;DHT22;2949;50.778;7.094;2022-11-04T07:01:18;7.30;99.90
5846;DHT22;2949;50.778;7.094;2022-11-04T07:03:51;7.30;99.90
5846;DHT22;2949;50.778;7.094;2022-11-04T07:06:18;7.30;99.90
5846;DHT22;2949;50.778;7.094;2022-11-04T07:08:45;7.40;99.90
5846;DHT22;2949;50.778;7.094;2022-11-04T07:11:10;7.40;99.90
5846;DHT22;2949;50.778;7.094;2022-11-04T07:13:36;7.50;99.90
5846;DHT22;2949;50.778;7.094;2022-11-04T07:16:05;7.60;99.90
5846;DHT22;2949;50.778;7.094;2022-11-04T07:18:32;7.70;99.90
5846;DHT22;2949;50.778;7.094;2022-11-04T07:20:58;7.80;99.90
5846;DHT22;2949;50.778;7.094;2022-11-04T07:23:23;7.80;99.90
5846;DHT22;2949;50.778;7.094;2022-11-04T07:25:49;7.90;99.90
5846;DHT22;2949;50.778;7.094;2022-11-04T07:28:15;7.90;99.90
5846;DHT22;2949;50.778;7.094;2022-11-04T07:30:41;7.90;99.90
5846;DHT22;2949;50.778;7.094;2022-11-04T07:33:07;7.90;99.90
5846;DHT22;2949;50.778;7.094;2022-11-04T07:35:32;7.90;99.90
5846;DHT22;2949;50.778;7.094;2022-11-04T07:37:58;7.90;99.90
5846;DHT22;2949;50.778;7.094;2022-11-04T07:40:24;8.00;99.90
5846;DHT22;2949;50.778;7.094;2022-11-04T07:42:49;8.00;99.90
5846;DHT22;2949;50.778;7.094;2022-11-04T07:45:15;8.00;99.90
5846;DHT22;2949;50.778;7.094;2022-11-04T07:47:41;8.00;99.90
5846;DHT22;2949;50.778;7.094;2022-11-04T07:50:06;8.10;99.90
5846;DHT22;2949;50.778;7.094;2022-11-04T07:52:32;8.10;99.90
5846;DHT22;2949;50.778;7.094;2022-11-04T07:54:58;8.10;99.90
5846;DHT22;2949;50.778;7.094;2022-11-04T07:57:23;8.20;99.90
5846;DHT22;2949;50.778;7.094;2022-11-04T07:59:49;8.40;99.90
5846;DHT22;2949;50.778;7.094;2022-11-04T08:02:14;8.50;99.90
5846;DHT22;2949;50.778;7.094;2022-11-04T08:04:40;8.60;99.90
5846;DHT22;2949;50.778;7.094;2022-11-04T08:07:08;8.70;99.90
5846;DHT22;2949;50.778;7.094;2022-11-04T08:09:34;8.80;99.90
5846;DHT22;2949;50.778;7.094;2022-11-04T08:12:01;9.00;99.90
5846;DHT22;2949;50.778;7.094;2022-11-04T08:14:27;9.20;99.90
5846;DHT22;2949;50.778;7.094;2022-11-04T08:16:52;9.40;99.90
5846;DHT22;2949;50.778;7.094;2022-11-04T08:19:18;10.10;99.90
5846;DHT22;2949;50.778;7.094;2022-11-04T08:21:43;10.40;99.90
5846;DHT22;2949;50.778;7.094;2022-11-04T08:24:09;10.80;99.90
5846;DHT22;2949;50.778;7.094;2022-11-04T08:26:34;11.00;99.90
5846;DHT22;2949;50.778;7.094;2022-11-04T08:29:00;11.10;99.90
5846;DHT22;2949;50.778;7.094;2022-11-04T08:31:29;11.00;99.90
5846;DHT22;2949;50.778;7.094;2022-11-04T08:33:55;11.00;99.90
5846;DHT22;2949;50.778;7.094;2022-11-04T08:36:32;11.00;99.90
5846;DHT22;2949;50.778;7.094;2022-11-04T08:38:59;10.90;99.90
5846;DHT22;2949;50.778;7.094;2022-11-04T08:41:27;10.90;99.90
5846;DHT22;2949;50.778;7.094;2022-11-04T08:43:55;11.00;99.90
5846;DHT22;2949;50.778;7.094;2022-11-04T08:46:21;11.10;99.90
5846;DHT22;2949;50.778;7.094;2022-11-04T08:48:47;11.60;99.90
5846;DHT22;2949;50.778;7.094;2022-11-04T08:51:23;12.10;99.90
5846;DHT22;2949;50.778;7.094;2022-11-04T08:53:50;12.80;99.90
5846;DHT22;2949;50.778;7.094;2022-11-04T08:56:24;13.10;99.90
5846;DHT22;2949;50.778;7.094;2022-11-04T08:58:50;13.30;99.90
5846;DHT22;2949;50.778;7.094;2022-11-04T09:01:17;14.30;99.90
5846;DHT22;2949;50.778;7.094;2022-11-04T09:03:42;15.10;99.90
5846;DHT22;2949;50.778;7.094;2022-11-04T09:06:11;16.20;99.90
5846;DHT22;2949;50.778;7.094;2022-11-04T09:08:38;17.10;99.90
5846;DHT22;2949;50.778;7.094;2022-11-04T09:11:08;17.00;99.90
5846;DHT22;2949;50.778;7.094;2022-11-04T09:13:34;16.50;99.90
5846;DHT22;2949;50.778;7.094;2022-11-04T09:16:00;16.60;99.90
5846;DHT22;2949;50.778;7.094;2022-11-04T09:18:25;18.20;99.90
5846;DHT22;2949;50.778;7.094;2022-11-04T09:20:51;19.70;99.90
5846;DHT22;2949;50.778;7.094;2022-11-04T09:23:17;21.20;99.90
5846;DHT22;2949;50.778;7.094;2022-11-04T09:25:42;21.10;99.90
5846;DHT22;2949;50.778;7.094;2022-11-04T09:28:08;20.20;99.90
5846;DHT22;2949;50.778;7.094;2022-11-04T09:30:34;19.20;99.90
5846;DHT22;2949;50.778;7.094;2022-11-04T09:33:00;19.10;99.90
5846;DHT22;2949;50.778;7.094;2022-11-04T09:35:26;19.20;99.90
5846;DHT22;2949;50.778;7.094;2022-11-04T09:37:54;20.40;99.90
5846;DHT22;2949;50.778;7.094;2022-11-04T09:40:23;21.80;99.90
5846;DHT22;2949;50.778;7.094;2022-11-04T09:45:35;22.60;98.70
5846;DHT22;2949;50.778;7.094;2022-11-04T09:48:06;21.80;98.50
5846;DHT22;2949;50.778;7.094;2022-11-04T09:50:43;20.80;99.80
5846;DHT22;2949;50.778;7.094;2022-11-04T09:53:26;19.70;99.90
5846;DHT22;2949;50.778;7.094;2022-11-04T09:55:56;18.80;99.90
5846;DHT22;2949;50.778;7.094;2022-11-04T09:58:22;18.30;99.90
5846;DHT22;2949;50.778;7.094;2022-11-04T10:04:07;17.40;99.90
5846;DHT22;2949;50.778;7.094;2022-11-04T10:12:43;16.70;99.90
5846;DHT22;2949;50.778;7.094;2022-11-04T10:15:31;16.30;99.90
5846;DHT22;2949;50.778;7.094;2022-11-04T10:24:04;15.30;99.90
5846;DHT22;2949;50.778;7.094;2022-11-04T10:26:52;14.90;99.90
5846;DHT22;2949;50.778;7.094;2022-11-04T10:29:32;14.70;99.90
5846;DHT22;2949;50.778;7.094;2022-11-04T10:32:03;14.60;99.90
5846;DHT22;2949;50.778;7.094;2022-11-04T10:34:36;14.70;99.90
5846;DHT22;2949;50.778;7.094;2022-11-04T10:37:09;14.80;99.90
5846;DHT22;2949;50.778;7.094;2022-11-04T10:39:41;14.90;99.90
5846;DHT22;2949;50.778;7.094;2022-11-04T10:42:16;15.20;99.90
5846;DHT22;2949;50.778;7.094;2022-11-04T10:44:44;15.10;99.90
5846;DHT22;2949;50.778;7.094;2022-11-04T10:49:39;15.20;99.90
5846;DHT22;2949;50.778;7.094;2022-11-04T10:52:07;15.30;99.90
5846;DHT22;2949;50.778;7.094;2022-11-04T10:54:44;15.50;99.90
5846;DHT22;2949;50.778;7.094;2022-11-04T10:57:11;15.80;99.90
5846;DHT22;2949;50.778;7.094;2022-11-04T10:59:58;16.10;99.90
5846;DHT22;2949;50.778;7.094;2022-11-04T11:05:22;16.20;99.90
5846;DHT22;2949;50.778;7.094;2022-11-04T11:07:51;16.50;99.90
5846;DHT22;2949;50.778;7.094;2022-11-04T11:10:20;16.70;99.90
5846;DHT22;2949;50.778;7.094;2022-11-04T11:15:36;16.40;99.90
5846;DHT22;2949;50.778;7.094;2022-11-04T11:18:13;16.20;99.90
5846;DHT22;2949;50.778;7.094;2022-11-04T11:20:40;16.00;99.90
5846;DHT22;2949;50.778;7.094;2022-11-04T11:25:58;16.00;99.90
5846;DHT22;2949;50.778;7.094;2022-11-04T11:28:25;16.20;99.90
5846;DHT22;2949;50.778;7.094;2022-11-04T11:30:57;16.20;99.90
5846;DHT22;2949;50.778;7.094;2022-11-04T11:33:25;16.10;99.90
5846;DHT22;2949;50.778;7.094;2022-11-04T11:38:24;16.00;99.90
5846;DHT22;2949;50.778;7.094;2022-11-04T11:41:02;16.00;99.90
5846;DHT22;2949;50.778;7.094;2022-11-04T11:43:31;15.70;99.90
5846;DHT22;2949;50.778;7.094;2022-11-04T11:45:57;15.50;99.90
5846;DHT22;2949;50.778;7.094;2022-11-04T11:48:39;15.50;99.90
5846;DHT22;2949;50.778;7.094;2022-11-04T11:51:05;15.50;99.90
5846;DHT22;2949;50.778;7.094;2022-11-04T11:53:31;15.50;99.90
5846;DHT22;2949;50.778;7.094;2022-11-04T11:59:05;15.20;99.90
5846;DHT22;2949;50.778;7.094;2022-11-04T12:01:48;15.20;99.90
5846;DHT22;2949;50.778;7.094;2022-11-04T12:04:16;15.20;99.90
5846;DHT22;2949;50.778;7.094;2022-11-04T12:18:25;14.60;99.90
5846;DHT22;2949;50.778;7.094;2022-11-04T12:21:01;14.50;99.90
5846;DHT22;2949;50.778;7.094;2022-11-04T12:23:36;14.60;99.90
5846;DHT22;2949;50.778;7.094;2022-11-04T12:26:13;14.80;99.90
5846;DHT22;2949;50.778;7.094;2022-11-04T12:28:58;14.90;99.90
5846;DHT22;2949;50.778;7.094;2022-11-04T12:31:42;15.00;99.90
5846;DHT22;2949;50.778;7.094;2022-11-04T12:34:37;15.00;99.90
5846;DHT22;2949;50.778;7.094;2022-11-04T12:37:19;15.10;99.90
5846;DHT22;2949;50.778;7.094;2022-11-04T12:43:01;14.90;99.90
5846;DHT22;2949;50.778;7.094;2022-11-04T12:48:38;14.70;99.90
5846;DHT22;2949;50.778;7.094;2022-11-04T12:51:36;14.50;99.90
5846;DHT22;2949;50.778;7.094;2022-11-04T12:56:39;14.20;99.90
5846;DHT22;2949;50.778;7.094;2022-11-04T13:01:39;14.10;99.90
5846;DHT22;2949;50.778;7.094;2022-11-04T13:04:11;14.00;99.90
5846;DHT22;2949;50.778;7.094;2022-11-04T13:06:44;14.00;99.90
5846;DHT22;2949;50.778;7.094;2022-11-04T13:09:19;14.00;99.90
5846;DHT22;2949;50.778;7.094;2022-11-04T13:11:51;14.10;99.90
5846;DHT22;2949;50.778;7.094;2022-11-04T13:14:25;14.20;99.90
5846;DHT22;2949;50.778;7.094;2022-11-04T13:16:58;14.30;99.90
5846;DHT22;2949;50.778;7.094;2022-11-04T13:19:46;14.40;99.90
5846;DHT22;2949;50.778;7.094;2022-11-04T13:22:16;14.40;99.90
5846;DHT22;2949;50.778;7.094;2022-11-04T13:24:51;14.40;99.90
5846;DHT22;2949;50.778;7.094;2022-11-04T13:27:21;14.40;99.90
5846;DHT22;2949;50.778;7.094;2022-11-04T13:29:48;14.40;99.90
5846;DHT22;2949;50.778;7.094;2022-11-04T13:43:50;14.10;99.90
5846;DHT22;2949;50.778;7.094;2022-11-04T13:46:23;14.00;99.90
5846;DHT22;2949;50.778;7.094;2022-11-04T13:51:45;13.90;99.90
5846;DHT22;2949;50.778;7.094;2022-11-04T13:54:27;13.70;99.90
5846;DHT22;2949;50.778;7.094;2022-11-04T13:57:14;13.50;99.90
5846;DHT22;2949;50.778;7.094;2022-11-04T13:59:41;13.30;99.90
5846;DHT22;2949;50.778;7.094;2022-11-04T14:02:22;13.20;99.90
5846;DHT22;2949;50.778;7.094;2022-11-04T14:04:47;13.00;99.90
5846;DHT22;2949;50.778;7.094;2022-11-04T14:07:16;12.90;99.90
5846;DHT22;2949;50.778;7.094;2022-11-04T14:14:53;12.70;99.90
5846;DHT22;2949;50.778;7.094;2022-11-04T14:20:29;12.60;99.90
5846;DHT22;2949;50.778;7.094;2022-11-04T14:23:00;12.50;99.90
5846;DHT22;2949;50.778;7.094;2022-11-04T14:27:54;12.30;99.90
5846;DHT22;2949;50.778;7.094;2022-11-04T14:31:09;12.20;99.90
5846;DHT22;2949;50.778;7.094;2022-11-04T14:44:08;11.70;99.90
5846;DHT22;2949;50.778;7.094;2022-11-04T14:46:43;11.60;99.90
5846;DHT22;2949;50.778;7.094;2022-11-04T14:54:41;11.40;99.90
5846;DHT22;2949;50.778;7.094;2022-11-04T14:57:21;11.40;99.90
5846;DHT22;2949;50.778;7.094;2022-11-04T14:59:47;11.30;99.90
5846;DHT22;2949;50.778;7.094;2022-11-04T15:02:16;11.30;99.90
5846;DHT22;2949;50.778;7.094;2022-11-04T15:04:48;11.30;99.90
5846;DHT22;2949;50.778;7.094;2022-11-04T15:07:32;11.20;99.90
5846;DHT22;2949;50.778;7.094;2022-11-04T15:09:58;11.20;99.90
5846;DHT22;2949;50.778;7.094;2022-11-04T15:12:24;11.20;99.90
5846;DHT22;2949;50.778;7.094;2022-11-04T15:15:38;11.20;99.90
5846;DHT22;2949;50.778;7.094;2022-11-04T15:18:16;11.20;99.90
5846;DHT22;2949;50.778;7.094;2022-11-04T15:20:54;11.20;99.90
5846;DHT22;2949;50.778;7.094;2022-11-04T15:23:27;11.10;99.90
5846;DHT22;2949;50.778;7.094;2022-11-04T15:25:53;11.10;99.90
5846;DHT22;2949;50.778;7.094;2022-11-04T15:28:33;11.10;99.90
5846;DHT22;2949;50.778;7.094;2022-11-04T15:31:23;11.00;99.90
5846;DHT22;2949;50.778;7.094;2022-11-04T15:34:04;11.00;99.90
5846;DHT22;2949;50.778;7.094;2022-11-04T15:36:41;11.00;99.90
5846;DHT22;2949;50.778;7.094;2022-11-04T15:39:20;11.00;99.90
5846;DHT22;2949;50.778;7.094;2022-11-04T15:41:49;11.00;99.90
5846;DHT22;2949;50.778;7.094;2022-11-04T15:44:36;10.90;99.90
5846;DHT22;2949;50.778;7.094;2022-11-04T15:49:45;10.80;99.90
5846;DHT22;2949;50.778;7.094;2022-11-04T15:52:15;10.70;99.90
5846;DHT22;2949;50.778;7.094;2022-11-04T15:54:44;10.70;99.90
5846;DHT22;2949;50.778;7.094;2022-11-04T15:59:49;10.50;99.90
5846;DHT22;2949;50.778;7.094;2022-11-04T16:02:23;10.40;99.90
5846;DHT22;2949;50.778;7.094;2022-11-04T16:05:03;10.30;99.90
5846;DHT22;2949;50.778;7.094;2022-11-04T16:07:50;10.30;99.90
5846;DHT22;2949;50.778;7.094;2022-11-04T16:10:34;10.30;99.90
5846;DHT22;2949;50.778;7.094;2022-11-04T16:13:02;10.40;99.90
5846;DHT22;2949;50.778;7.094;2022-11-04T16:15:48;10.40;99.90
5846;DHT22;2949;50.778;7.094;2022-11-04T16:18:25;10.30;99.90
5846;DHT22;2949;50.778;7.094;2022-11-04T16:20:55;10.30;99.90
5846;DHT22;2949;50.778;7.094;2022-11-04T16:23:23;10.20;99.90
5846;DHT22;2949;50.778;7.094;2022-11-04T16:26:04;10.20;99.90
5846;DHT22;2949;50.778;7.094;2022-11-04T16:28:34;10.20;99.90
5846;DHT22;2949;50.778;7.094;2022-11-04T16:31:07;10.20;99.90
5846;DHT22;2949;50.778;7.094;2022-11-04T16:33:33;10.20;99.90
5846;DHT22;2949;50.778;7.094;2022-11-04T16:35:58;10.10;99.90
5846;DHT22;2949;50.778;7.094;2022-11-04T16:38:24;10.10;99.90
5846;DHT22;2949;50.778;7.094;2022-11-04T16:40:49;10.20;99.90
5846;DHT22;2949;50.778;7.094;2022-11-04T16:43:17;10.10;99.90
5846;DHT22;2949;50.778;7.094;2022-11-04T16:45:45;10.20;99.90
5846;DHT22;2949;50.778;7.094;2022-11-04T16:48:16;10.20;99.90
5846;DHT22;2949;50.778;7.094;2022-11-04T16:50:43;10.10;99.90
5846;DHT22;2949;50.778;7.094;2022-11-04T16:53:09;10.10;99.90
5846;DHT22;2949;50.778;7.094;2022-11-04T16:55:36;10.10;99.90
5846;DHT22;2949;50.778;7.094;2022-11-04T16:58:03;10.10;99.90
5846;DHT22;2949;50.778;7.094;2022-11-04T17:00:30;10.10;99.90
5846;DHT22;2949;50.778;7.094;2022-11-04T17:02:59;10.10;99.90
5846;DHT22;2949;50.778;7.094;2022-11-04T17:05:25;10.10;99.90
5846;DHT22;2949;50.778;7.094;2022-11-04T17:07:51;10.10;99.90
5846;DHT22;2949;50.778;7.094;2022-11-04T17:10:20;10.00;99.90
5846;DHT22;2949;50.778;7.094;2022-11-04T17:12:46;10.00;99.90
5846;DHT22;2949;50.778;7.094;2022-11-04T17:15:12;10.00;99.90
5846;DHT22;2949;50.778;7.094;2022-11-04T17:17:39;10.00;99.90
5846;DHT22;2949;50.778;7.094;2022-11-04T17:20:05;10.00;99.90
5846;DHT22;2949;50.778;7.094;2022-11-04T17:22:32;10.00;99.90
5846;DHT22;2949;50.778;7.094;2022-11-04T17:24:59;10.10;99.90
5846;DHT22;2949;50.778;7.094;2022-11-04T17:27:25;10.10;99.90
5846;DHT22;2949;50.778;7.094;2022-11-04T17:29:50;10.10;99.90
5846;DHT22;2949;50.778;7.094;2022-11-04T17:32:16;10.10;99.90
5846;DHT22;2949;50.778;7.094;2022-11-04T17:34:41;10.10;99.90
5846;DHT22;2949;50.778;7.094;2022-11-04T17:37:11;10.10;99.90
5846;DHT22;2949;50.778;7.094;2022-11-04T17:39:37;10.20;99.90
5846;DHT22;2949;50.778;7.094;2022-11-04T17:42:02;10.20;99.90
5846;DHT22;2949;50.778;7.094;2022-11-04T17:44:46;10.10;99.90
5846;DHT22;2949;50.778;7.094;2022-11-04T17:47:12;10.10;99.90
5846;DHT22;2949;50.778;7.094;2022-11-04T17:49:37;10.00;99.90
5846;DHT22;2949;50.778;7.094;2022-11-04T17:52:03;9.90;99.90
5846;DHT22;2949;50.778;7.094;2022-11-04T17:54:29;9.80;99.90
5846;DHT22;2949;50.778;7.094;2022-11-04T17:56:56;9.80;99.90
5846;DHT22;2949;50.778;7.094;2022-11-04T17:59:22;9.70;99.90
5846;DHT22;2949;50.778;7.094;2022-11-04T18:01:48;9.70;99.90
5846;DHT22;2949;50.778;7.094;2022-11-04T18:04:21;9.70;99.90
5846;DHT22;2949;50.778;7.094;2022-11-04T18:06:47;9.70;99.90
5846;DHT22;2949;50.778;7.094;2022-11-04T18:09:14;9.80;99.90
5846;DHT22;2949;50.778;7.094;2022-11-04T18:11:40;9.80;99.90
5846;DHT22;2949;50.778;7.094;2022-11-04T18:14:26;9.80;99.90
5846;DHT22;2949;50.778;7.094;2022-11-04T18:16:52;9.90;99.90
5846;DHT22;2949;50.778;7.094;2022-11-04T18:19:19;9.90;99.90
5846;DHT22;2949;50.778;7.094;2022-11-04T18:21:46;9.90;99.90
5846;DHT22;2949;50.778;7.094;2022-11-04T18:24:12;9.90;99.90
5846;DHT22;2949;50.778;7.094;2022-11-04T18:26:38;10.00;99.90
5846;DHT22;2949;50.778;7.094;2022-11-04T18:29:04;10.00;99.90
5846;DHT22;2949;50.778;7.094;2022-11-04T18:31:32;9.90;99.90
5846;DHT22;2949;50.778;7.094;2022-11-04T18:33:59;9.90;99.90
5846;DHT22;2949;50.778;7.094;2022-11-04T18:36:26;9.90;99.90